Airfield :
LOGIN :

Register | Disclaimer

   EN    FR    IT 

 










Legend :    VFR   Marginal VFR   IFR   Intensive IFR   Very Intensive IFR
Visi :
Ceiling :
>= 8 km
>= 3000ft
5 to 8 km
1000 to 3000 ft
1500m to 5 km
500 to 1000 ft
800 to 1500m
200 to 500 ft
< 800m
< 200 ft
Symbols :   Thunderstorms  Fog  Heavy snow  Heavy precipitations  Wind > 20 kt
SIGMETs :     Misc.  Thunderstorms  Icing  Turbulence  Mountain Waves  Volcanic Ashes






- Airport Elevation : 1233 ft
- IATA code : OSD


ESNZ - Östersund

CURRENT METAR :
  • 090620Z 13012KT 9999 BKN011 OVC021 M04/M05 Q1012

EXPIRED METARs :
  • 090550Z 14011KT 9999 OVC022 M04/M06 Q1012
  • 090520Z 14014KT 9999 OVC023 M04/M06 Q1012
  • 090450Z 14013KT 9999 -SN OVC025 M04/M06 Q1012
  • 090420Z AUTO 14013KT 9999 -SN OVC024/// M04/M06 Q1012
  • 090350Z AUTO 13013KT 9999 SG OVC022/// M05/M06 Q1012

TAF TAF ESNZ
Valid from the 09 at 06:00 until the 09 at 15:00 UTC


090530Z 0906/0915 14013KT 9999 -SN OVC025
PROB40 0906/0912 BKN012



MET'MAP, your aeronautical weather chart ! - Copyright ORBIFLY December 2007 - Disclaimer

ORBIFLY MET'MAP TEAM :

Programming & Development : Alexandra Zaïnal
Concept & original design : Baudouin d'Aumeries
Assistance for programming : Marc-Olivier Méhu
Technical & hardware support : Manuel Goepfert

Contact : metmap@orbifly.com




SOURCES & CREDITS :

   NOAA